Flight Track Log - Related Links

Times and Time Zones

All times are in EDT time to prevent confusion due to time zone crossing. See the SWA1810 flight status page for this flight to view local times or setup timezone preferences in your user account.

Time Position Orientation Groundspeed Altitude Reporting Facility
EDT Latitude Longitude Course Direction KTS MPH feet Rate Location/Type
Mon 01:03:42 PM 39.9883 -82.7481 93° East 234 269 5,000  Level Indianapolis Center
Mon 01:04:22 PM 40.0078 -82.7031 61° Northeast 238 274 6,600 2,882 Climbing Indianapolis Center
Mon 01:05:24 PM 40.0433 -82.7661 306° West 254 292 9,900 2,226 Climbing Indianapolis Center
Mon 01:06:26 PM 40.0439 -82.8767 270° West 311 358 11,200 2,129 Climbing Indianapolis Center
Mon 01:07:28 PM 40.0367 -83.0053 266° West 350 403 14,300 3,097 Climbing Indianapolis Center
Mon 01:08:30 PM 40.0303 -83.1386 266° West 365 420 17,600 3,000 Climbing Indianapolis Center
Mon 01:09:32 PM 40.0219 -83.2961 266° West 373 429 20,500 2,468 Climbing Indianapolis Center
Mon 01:10:34 PM 40.0142 -83.4361 266° West 386 444 22,700 1,968 Climbing Indianapolis Center
Mon 01:11:37 PM 40.0061 -83.5822 266° West 406 467 24,600 1,584 Climbing Indianapolis Center
Mon 01:12:39 PM 39.9975 -83.7333 266° West 418 481 26,000 1,317 Climbing Indianapolis Center
Mon 01:13:40 PM 39.9875 -83.8867 265° West 424 488 27,300 1,463 Climbing Indianapolis Center
Mon 01:14:42 PM 39.9778 -84.0669 266° West 426 490 29,000 968 Climbing Indianapolis Center
Mon 01:15:44 PM 39.9683 -84.2267 266° West 435 501 29,300 919 Climbing Indianapolis Center
Mon 01:16:46 PM 39.9575 -84.3847 265° West 436 502 30,900 1,694 Climbing Indianapolis Center
Mon 01:17:48 PM 39.9478 -84.5392 265° West 429 494 32,800 1,694 Climbing Indianapolis Center
Mon 01:18:50 PM 39.9369 -84.6931 265° West 424 488 34,400 1,258 Climbing Indianapolis Center
Mon 01:19:52 PM 39.9275 -84.8211 265° West 424 488 35,400 774 Climbing Indianapolis Center
Mon 01:20:54 PM 39.9167 -85.0011 266° West 424 488 36,000 290 Climbing Indianapolis Center
Mon 01:21:56 PM 39.9044 -85.1814 265° West 425 489 36,000  Level Indianapolis Center
Mon 01:24:00 PM 39.8814 -85.4897 265° West 426 490 36,000  Level Indianapolis Center
Mon 01:25:02 PM 39.8703 -85.6431 265° West 423 487 36,000  Level Indianapolis Center
Mon 01:26:04 PM 39.8578 -85.7992 264° West 428 493 36,000  Level Indianapolis Center
Mon 01:27:06 PM 39.8469 -85.9500 265° West 426 490 36,000  Level Indianapolis Center
Mon 01:28:08 PM 39.8317 -86.1028 263° West 426 490 36,000  Level Indianapolis Center
Mon 01:29:10 PM 39.8078 -86.2814 260° West 420 483 36,000 390 Level Indianapolis Center
Mon 01:30:11 PM 39.7883 -86.4306 260° West 419 482 36,800 878 Climbing Indianapolis Center
Mon 01:31:13 PM 39.7683 -86.5797 260° West 419 482 37,800 581 Climbing Indianapolis Center
Mon 01:32:15 PM 39.7497 -86.7258 261° West 413 475 38,000 97 Climbing Indianapolis Center
Mon 01:33:17 PM 39.7292 -86.8714 260° West 410 472 38,000  Level Indianapolis Center
Mon 01:34:19 PM 39.7097 -87.0175 260° West 410 472 38,000  Level Indianapolis Center
Mon 01:35:21 PM 39.6894 -87.1633 260° West 410 472 38,000  Level Indianapolis Center
Mon 01:36:23 PM 39.6650 -87.3381 260° West 410 472 38,000  Level Indianapolis Center
Mon 01:37:25 PM 39.6444 -87.4844 260° West 411 473 38,000  Level Indianapolis Center
Mon 01:38:27 PM 39.6247 -87.6300 260° West 410 472 38,000  Level Indianapolis Center
Mon 01:39:28 PM 39.6047 -87.7744 260° West 409 471 38,000  Level Indianapolis Center
Mon 01:40:30 PM 39.5839 -87.9164 259° West 406 467 38,000  Level Indianapolis Center
Mon 01:40:47 PM 39.5803 -87.9442 260° West 406 467 38,000  Level Kansas City Center
Mon 01:41:49 PM 39.5603 -88.0869 260° West 404 465 38,000  Level Kansas City Center
Mon 01:42:49 PM 39.5347 -88.2553 259° West 401 461 38,000  Level Kansas City Center
Mon 01:43:53 PM 39.5144 -88.3944 259° West 398 458 38,000  Level Kansas City Center
Mon 01:44:54 PM 39.4936 -88.5347 259° West 397 457 38,000  Level Kansas City Center
Mon 01:45:57 PM 39.4694 -88.6789 258° West 407 468 38,000  Level Kansas City Center
Mon 01:46:58 PM 39.4494 -88.8197 260° West 402 463 38,000  Level Kansas City Center
Mon 01:48:01 PM 39.4278 -88.9583 259° West 396 456 38,000  Level Kansas City Center
Mon 01:49:02 PM 39.4039 -89.1136 259° West 397 457 38,000  Level Kansas City Center
Mon 01:50:04 PM 39.3814 -89.2558 258° West 402 463 38,000  Level Kansas City Center
Mon 01:51:08 PM 39.3586 -89.3975 258° West 404 465 38,000  Level Kansas City Center
Mon 01:52:08 PM 39.3369 -89.5403 259° West 406 467 38,000  Level Kansas City Center
Mon 01:53:09 PM 39.3092 -89.7100 258° West 406 467 38,000  Level Kansas City Center
Mon 01:54:14 PM 39.2872 -89.8506 259° West 403 464 38,000  Level Kansas City Center
Mon 01:55:14 PM 39.2639 -89.9914 258° West 404 465 38,000  Level Kansas City Center
Mon 01:56:17 PM 39.2406 -90.1306 258° West 401 461 38,000  Level Kansas City Center
Mon 01:57:18 PM 39.2178 -90.2694 258° West 400 460 38,000  Level Kansas City Center
Mon 01:58:22 PM 39.1914 -90.4344 258° West 396 456 38,000  Level Kansas City Center
Mon 01:59:22 PM 39.1672 -90.5733 257° West 399 459 38,000  Level Kansas City Center
Mon 02:00:23 PM 39.1439 -90.7103 258° West 395 455 38,000  Level Kansas City Center
Mon 02:01:27 PM 39.1206 -90.8508 258° West 401 461 38,000  Level Kansas City Center
Mon 02:02:28 PM 39.0964 -90.9925 258° West 406 467 38,000  Level Kansas City Center
Mon 02:03:32 PM 39.0672 -91.1608 257° West 405 466 38,000  Level Kansas City Center
Mon 02:04:33 PM 39.0433 -91.3000 258° West 401 461 38,000  Level Kansas City Center
Mon 02:05:34 PM 39.0183 -91.4389 257° West 400 460 38,000  Level Kansas City Center
Mon 02:06:38 PM 38.9944 -91.5781 258° West 401 461 38,000  Level Kansas City Center
Mon 02:07:39 PM 38.9664 -91.7328 257° West 396 456 38,000  Level Kansas City Center
Mon 02:08:42 PM 38.9411 -91.8692 257° West 393 452 38,000  Level Kansas City Center
Mon 02:09:43 PM 38.9161 -92.0064 257° West 394 453 38,000  Level Kansas City Center
Mon 02:10:44 PM 38.8917 -92.1417 257° West 392 451 38,000  Level Kansas City Center
Mon 02:11:48 PM 38.8653 -92.2794 256° West 395 455 38,000  Level Kansas City Center
Mon 02:12:48 PM 38.8350 -92.4436 257° West 395 455 38,000  Level Kansas City Center
Mon 02:13:50 PM 38.8089 -92.5775 256° West 390 449 38,000  Level Kansas City Center
Mon 02:14:53 PM 38.7831 -92.7158 257° West 395 455 38,000  Level Kansas City Center
Mon 02:15:54 PM 38.7575 -92.8506 256° West 393 452 38,000  Level Kansas City Center
Mon 02:16:58 PM 38.7319 -92.9839 256° West 389 448 38,000  Level Kansas City Center
Mon 02:17:58 PM 38.7056 -93.1169 256° West 388 447 38,000  Level Kansas City Center
Mon 02:19:02 PM 38.6747 -93.2756 256° West 384 442 38,000  Level Kansas City Center
Mon 02:20:02 PM 38.6486 -93.4067 256° West 382 440 38,000  Level Kansas City Center
Mon 02:21:03 PM 38.6231 -93.5394 256° West 384 442 38,000  Level Kansas City Center
Mon 02:22:07 PM 38.5969 -93.6711 256° West 383 441 38,000  Level Kansas City Center
Mon 02:23:08 PM 38.5706 -93.8106 256° West 381 438 38,000  Level Kansas City Center
Mon 02:24:12 PM 38.5453 -93.9369 256° West 383 441 38,000  Level Kansas City Center
Mon 02:25:13 PM 38.5161 -94.0814 256° West 376 433 38,000  Level Kansas City Center
Mon 02:26:13 PM 38.4908 -94.2072 256° West 381 438 38,000  Level Kansas City Center
Mon 02:27:17 PM 38.4611 -94.3522 255° West 378 435 38,000  Level Kansas City Center
Mon 02:28:18 PM 38.4353 -94.4758 255° West 377 434 38,000  Level Kansas City Center
Mon 02:29:21 PM 38.4047 -94.6222 255° West 380 437 38,000  Level Kansas City Center
Mon 02:30:23 PM 38.3781 -94.7461 255° West 379 436 38,000  Level Kansas City Center
Mon 02:31:23 PM 38.3492 -94.8894 256° West 374 430 38,000  Level Kansas City Center
Mon 02:32:26 PM 38.3231 -95.0111 255° West 371 427 38,000  Level Kansas City Center
Mon 02:33:27 PM 38.2972 -95.1328 255° West 370 426 38,000  Level Kansas City Center
Mon 02:34:31 PM 38.2672 -95.2725 255° West 370 426 38,000  Level Kansas City Center
Mon 02:35:32 PM 38.2414 -95.3908 255° West 365 420 38,000  Level Kansas City Center
Mon 02:36:32 PM 38.2122 -95.5292 255° West 362 417 38,000  Level Kansas City Center
Mon 02:37:36 PM 38.1867 -95.6453 254° West 355 409 38,000  Level Kansas City Center
Mon 02:38:36 PM 38.1578 -95.7781 255° West 350 403 38,000  Level Kansas City Center
Mon 02:39:39 PM 38.1331 -95.8919 255° West 347 399 38,000  Level Kansas City Center
Mon 02:40:41 PM 38.1083 -96.0036 254° West 345 397 38,000  Level Kansas City Center
Mon 02:41:42 PM 38.0772 -96.1425 254° West 349 402 38,000  Level Kansas City Center
Mon 02:42:46 PM 38.0508 -96.2619 254° West 348 400 38,000  Level Kansas City Center
Mon 02:43:46 PM 38.0242 -96.3806 254° West 348 400 38,000  Level Kansas City Center
Mon 02:44:47 PM 37.9969 -96.5008 254° West 355 409 38,000  Level Kansas City Center
Mon 02:45:51 PM 37.9694 -96.6208 254° West 356 410 38,000  Level Kansas City Center
Mon 02:46:52 PM 37.9428 -96.7411 254° West 356 410 38,000  Level Kansas City Center
Mon 02:47:53 PM 37.9142 -96.8628 253° West 359 413 38,000  Level Kansas City Center
Mon 02:48:57 PM 37.8861 -96.9839 254° West 360 414 38,000  Level Kansas City Center
Mon 02:49:58 PM 37.8525 -97.1297 254° West 361 415 38,000  Level Kansas City Center
Mon 02:50:58 PM 37.8233 -97.2511 253° West 361 415 38,000  Level Kansas City Center
Mon 02:52:01 PM 37.7958 -97.3728 254° West 360 414 38,000  Level Kansas City Center
Mon 02:53:02 PM 37.7636 -97.5056 253° West 357 411 38,000  Level Kansas City Center
Mon 02:54:06 PM 37.7372 -97.6250 254° West 355 409 38,000  Level Kansas City Center
Mon 02:55:07 PM 37.7142 -97.7456 256° West 353 406 38,000  Level Kansas City Center
Mon 02:56:07 PM 37.6908 -97.8669 256° West 354 407 38,000  Level Kansas City Center
Mon 02:57:11 PM 37.6672 -97.9892 256° West 357 411 38,000  Level Kansas City Center
Mon 02:58:14 PM 37.6375 -98.1106 253° West 361 415 38,000  Level Kansas City Center
Mon 02:59:15 PM 37.6022 -98.2483 252° West 362 417 38,000  Level Kansas City Center
Mon 03:00:18 PM 37.5722 -98.3708 253° West 365 420 38,000  Level Kansas City Center
Mon 03:01:19 PM 37.5417 -98.4942 253° West 367 422 38,000  Level Kansas City Center
Mon 03:02:20 PM 37.5108 -98.6178 253° West 370 426 38,000  Level Kansas City Center
Mon 03:03:23 PM 37.4800 -98.7419 253° West 371 427 38,000  Level Kansas City Center
Mon 03:04:24 PM 37.4486 -98.8644 252° West 370 426 38,000  Level Kansas City Center
Mon 03:05:25 PM 37.4183 -98.9867 253° West 366 421 38,000  Level Kansas City Center
Mon 03:06:29 PM 37.3792 -99.1325 251° West 367 422 38,000  Level Kansas City Center
Mon 03:07:30 PM 37.3478 -99.2556 252° West 369 425 38,000  Level Kansas City Center
Mon 03:08:31 PM 37.3172 -99.3783 253° West 368 423 38,000  Level Kansas City Center
Mon 03:09:35 PM 37.2808 -99.5139 251° West 370 426 38,000  Level Kansas City Center
Mon 03:10:35 PM 37.2503 -99.6325 252° West 372 428 38,000  Level Kansas City Center
Mon 03:11:37 PM 37.2142 -99.7703 252° West 372 428 38,000  Level Kansas City Center
Mon 03:12:40 PM 37.1831 -99.8886 252° West 373 429 38,000  Level Kansas City Center
Mon 03:13:41 PM 37.1514 -100.0069 251° West 373 429 38,000  Level Kansas City Center
Mon 03:14:42 PM 37.1164 -100.1431 252° West 369 425 38,000  Level Kansas City Center
Mon 03:15:43 PM 37.0861 -100.2592 252° West 367 422 38,000  Level Kansas City Center
Mon 03:16:47 PM 37.0497 -100.3928 251° West 363 418 38,000  Level Kansas City Center
Mon 03:17:48 PM 37.0186 -100.5058 251° West 360 414 38,000  Level Kansas City Center
Mon 03:18:48 PM 36.9833 -100.6375 251° West 358 412 38,000  Level Kansas City Center
Mon 03:19:52 PM 36.9536 -100.7492 252° West 356 410 38,000  Level Kansas City Center
Mon 03:20:54 PM 36.9225 -100.8611 251° West 355 409 38,000  Level Kansas City Center
Mon 03:21:55 PM 36.8869 -100.9914 251° West 353 406 38,000  Level Kansas City Center
Mon 03:22:56 PM 36.8558 -101.1033 251° West 356 410 38,000  Level Kansas City Center
Mon 03:23:59 PM 36.8194 -101.2333 251° West 355 409 38,000  Level Kansas City Center
Mon 03:25:00 PM 36.7889 -101.3467 251° West 357 411 38,000  Level Kansas City Center
Mon 03:26:01 PM 36.7517 -101.4775 250° West 358 412 38,000  Level Kansas City Center
Mon 03:27:10 PM 36.7147 -101.6108 251° West 362 417 38,000  Level Albuquerque Center
Mon 03:28:12 PM 36.6836 -101.7236 251° West 360 414 38,000  Level Albuquerque Center
Mon 03:29:14 PM 36.6458 -101.8531 250° West 358 412 38,000  Level Albuquerque Center
Mon 03:30:16 PM 36.6139 -101.9661 251° West 360 414 38,000  Level Albuquerque Center
Mon 03:31:18 PM 36.5758 -102.0983 250° West 361 415 38,000  Level Albuquerque Center
Mon 03:32:20 PM 36.5425 -102.2156 251° West 362 417 38,000  Level Albuquerque Center
Mon 03:33:22 PM 36.5089 -102.3311 250° West 359 413 38,000  Level Albuquerque Center
Mon 03:34:24 PM 36.4756 -102.4472 250° West 358 412 38,000  Level Albuquerque Center
Mon 03:35:26 PM 36.4422 -102.5644 251° West 361 415 38,000  Level Albuquerque Center
Mon 03:36:28 PM 36.4067 -102.6839 250° West 367 422 38,000  Level Albuquerque Center
Mon 03:37:30 PM 36.3656 -102.8242 250° West 364 419 38,000  Level Albuquerque Center
Mon 03:38:32 PM 36.3331 -102.9322 250° West 363 418 38,000  Level Albuquerque Center
Mon 03:39:34 PM 36.2981 -103.0508 250° West 364 419 38,000  Level Albuquerque Center
Mon 03:40:36 PM 36.2569 -103.1917 250° West 369 425 38,000  Level Albuquerque Center
Mon 03:41:38 PM 36.2231 -103.3128 251° West 370 426 38,000  Level Albuquerque Center
Mon 03:42:40 PM 36.1872 -103.4339 250° West 372 428 38,000  Level Albuquerque Center
Mon 03:43:42 PM 36.1503 -103.5511 249° West 367 422 38,000  Level Albuquerque Center
Mon 03:44:44 PM 36.1139 -103.6672 249° West 362 417 38,000  Level Albuquerque Center
Mon 03:45:46 PM 36.0772 -103.7842 249° West 362 417 38,000  Level Albuquerque Center
Mon 03:46:47 PM 36.0422 -103.9039 250° West 367 422 38,000  Level Albuquerque Center
Mon 03:47:49 PM 35.9983 -104.0444 249° West 372 428 38,000  Level Albuquerque Center
Mon 03:48:51 PM 35.9611 -104.1647 249° West 373 429 38,000  Level Albuquerque Center
Mon 03:49:53 PM 35.9256 -104.2853 250° West 374 430 38,000  Level Albuquerque Center
Mon 03:50:55 PM 35.9036 -104.4119 258° West 375 432 38,000  Level Albuquerque Center
Mon 03:51:57 PM 35.8811 -104.5392 258° West 378 435 38,000  Level Albuquerque Center
Mon 03:52:59 PM 35.8581 -104.6689 258° West 383 441 38,000  Level Albuquerque Center
Mon 03:54:01 PM 35.8350 -104.7978 258° West 384 442 38,000  Level Albuquerque Center
Mon 03:55:03 PM 35.8078 -104.9483 257° West 384 442 38,000  Level Albuquerque Center
Mon 03:56:05 PM 35.7836 -105.0789 257° West 388 447 38,000  Level Albuquerque Center
Mon 03:57:07 PM 35.7600 -105.2089 257° West 388 447 38,000  Level Albuquerque Center
Mon 03:58:09 PM 35.7361 -105.3381 257° West 385 443 38,000  Level Albuquerque Center
Mon 03:59:11 PM 35.7114 -105.4669 257° West 384 442 38,000  Level Albuquerque Center
Mon 04:00:13 PM 35.6847 -105.6117 257° West 388 447 38,000  Level Albuquerque Center
Mon 04:01:15 PM 35.6617 -105.7381 257° West 382 440 38,000  Level Albuquerque Center
Mon 04:02:17 PM 35.6358 -105.8717 257° West 377 434 38,000  Level Albuquerque Center
Mon 04:03:19 PM 35.6142 -105.9861 257° West 372 428 38,000  Level Albuquerque Center
Mon 04:04:20 PM 35.5917 -106.1075 257° West 368 423 38,000  Level Albuquerque Center
Mon 04:05:22 PM 35.5697 -106.2322 258° West 371 427 38,000  Level Albuquerque Center
Mon 04:06:24 PM 35.5450 -106.3561 256° West 374 430 38,000  Level Albuquerque Center
Mon 04:07:26 PM 35.5167 -106.5047 257° West 375 432 38,000  Level Albuquerque Center
Mon 04:08:28 PM 35.4928 -106.6300 257° West 378 435 38,000  Level Albuquerque Center
Mon 04:09:30 PM 35.4681 -106.7536 256° West 376 433 38,000  Level Albuquerque Center
Mon 04:10:32 PM 35.4431 -106.8764 256° West 375 432 38,000  Level Albuquerque Center
Mon 04:11:34 PM 35.4181 -107.0006 256° West 378 435 38,000  Level Albuquerque Center
Mon 04:12:36 PM 35.3886 -107.1497 256° West 378 435 38,000  Level Albuquerque Center
Mon 04:13:38 PM 35.3636 -107.2753 256° West 382 440 38,000  Level Albuquerque Center
Mon 04:14:40 PM 35.3361 -107.4028 255° West 386 444 38,000  Level Albuquerque Center
Mon 04:15:42 PM 35.3097 -107.5386 257° West 392 451 38,000  Level Albuquerque Center
Mon 04:16:44 PM 35.2783 -107.6856 255° West 398 458 38,000 -435 Level Albuquerque Center
Mon 04:17:46 PM 35.2525 -107.8119 256° West 399 459 37,100 -774 Descending Albuquerque Center
Mon 04:18:48 PM 35.2225 -107.9553 256° West 392 451 36,400 -780 Descending Albuquerque Center
Mon 04:19:49 PM 35.1978 -108.0783 256° West 390 449 35,500 -878 Descending Albuquerque Center
Mon 04:20:51 PM 35.1719 -108.2044 256° West 394 453 34,600 -968 Descending Albuquerque Center
Mon 04:21:53 PM 35.1400 -108.3536 255° West 402 463 33,500 -1,016 Descending Albuquerque Center
Mon 04:22:55 PM 35.1125 -108.4828 255° West 407 468 32,500 -726 Descending Albuquerque Center
Mon 04:23:57 PM 35.0797 -108.6353 255° West 413 475 32,000 -242 Descending Albuquerque Center
Mon 04:24:59 PM 35.0522 -108.7653 256° West 413 475 32,000  Level Albuquerque Center
Mon 04:26:01 PM 35.0192 -108.9186 255° West 416 479 32,000  Level Albuquerque Center
Mon 04:27:03 PM 34.9906 -109.0508 255° West 419 482 32,000  Level Albuquerque Center
Mon 04:28:05 PM 34.9597 -109.1794 254° West 415 478 32,000  Level Albuquerque Center
Mon 04:29:07 PM 34.9058 -109.3269 246° West 422 486 32,000  Level Albuquerque Center
Mon 04:30:09 PM 34.8603 -109.4522 246° West 422 486 32,000  Level Albuquerque Center
Mon 04:31:10 PM 34.8047 -109.5936 244° Southwest 416 479 32,000  Level Albuquerque Center
Mon 04:32:12 PM 34.7583 -109.7203 246° West 423 487 32,000  Level Albuquerque Center
Mon 04:33:14 PM 34.7047 -109.8661 246° West 423 487 32,000  Level Albuquerque Center
Mon 04:34:16 PM 34.6592 -109.9906 246° West 422 486 32,000  Level Albuquerque Center
Mon 04:35:18 PM 34.6050 -110.1350 246° West 421 484 32,000  Level Albuquerque Center
Mon 04:36:19 PM 34.5622 -110.2650 248° West 427 491 32,000  Level Albuquerque Center
Mon 04:37:21 PM 34.5114 -110.3811 242° Southwest 410 472 32,000 -339 Level Albuquerque Center
Mon 04:38:23 PM 34.4619 -110.5303 248° West 431 496 31,300 -1,984 Descending Albuquerque Center
Mon 04:39:25 PM 34.4119 -110.6569 244° Southwest 424 488 27,900 -2,903 Descending Albuquerque Center
Mon 04:40:27 PM 34.3583 -110.7803 242° Southwest 419 482 25,300 -2,244 Descending Albuquerque Center
Mon 04:41:28 PM 34.2883 -110.8833 231° Southwest 401 461 23,300 -1,854 Descending Albuquerque Center
Mon 04:42:30 PM 34.2178 -110.9725 226° Southwest 376 433 21,500 -1,790 Descending Albuquerque Center
Mon 04:43:32 PM 34.1503 -111.0583 226° Southwest 360 414 19,600 -1,984 Descending Albuquerque Center
Mon 04:44:34 PM 34.0756 -111.1547 227° Southwest 335 386 17,400 -1,902 Descending Albuquerque Center
Mon 04:45:35 PM 34.0161 -111.2322 227° Southwest 321 369 15,700 -1,610 Descending Albuquerque Center
Mon 04:46:37 PM 33.9589 -111.3058 227° Southwest 306 352 14,100 -1,548 Descending Albuquerque Center
Mon 04:47:39 PM 33.9019 -111.3786 227° Southwest 300 345 12,500 -1,403 Descending Albuquerque Center
Mon 04:48:41 PM 33.8417 -111.4400 220° Southwest 283 326 11,200 -968 Descending Albuquerque Center
Mon 04:49:43 PM 33.7786 -111.4931 215° Southwest 275 316 10,500 -829 Descending Albuquerque Center
Mon 04:50:44 PM 33.7247 -111.5411 217° Southwest 244 281 9,500 -1,073 Descending Albuquerque Center
Mon 04:51:46 PM 33.6656 -111.5781 207° Southwest 241 277 8,300 -1,065 Descending Albuquerque Center
Mon 04:52:48 PM 33.5947 -111.6225 208° Southwest 238 274 7,300 -1,016 Descending Albuquerque Center
Mon 04:53:50 PM 33.5406 -111.6633 212° Southwest 232 267 6,200 -1,024 Descending Albuquerque Center
Mon 04:54:51 PM 33.4961 -111.7150 224° Southwest 222 255 5,200 -878 Descending Albuquerque Center
Mon 04:55:53 PM 33.4694 -111.7814 244° Southwest 219 252 4,400 -774 Descending Albuquerque Center
Mon 04:56:55 PM 33.4458 -111.8389 244° Southwest 195 224 3,600 -919 Descending Albuquerque Center
Mon 04:57:57 PM 33.4411 -111.8983 265° West 181 208 2,500 -871 Descending Albuquerque Center
Mon 04:58:59 PM 33.4414 -111.9486 270° West 154 177 1,800 -683 Descending Albuquerque Center
Mon 05:00:00 PM 33.4461 -111.9983 277° West 162 186 1,100 -689 Descending Albuquerque Center
Mon 05:01:00 PM 33.4333 -112.0000 270° West  Level FlightAware Approximate
Mon 05:08:00 PM 33.4343 -112.0116 270° West  Level Estimated

Login

Don't have an account? Register now (free) for customized features, flight alerts, and more!